METAR Data
IDs: Format: Raw Decoded Include TAF

Data at: 0038 UTC 25 Apr 2019

PAOU 242356Z AUTO 04014KT 10SM CLR 02/M04 A3007 RMK AO2 SLP183 60000 T00171044 10022 20006 51015 FZRANO
PAOU 242256Z AUTO 04016KT 10SM SCT085 02/M04 A3006 RMK AO2 SLP179 T00171044 FZRANO
PAOU 242156Z AUTO 04017KT 10SM FEW027 SCT032 OVC044 02/M04 A3004 RMK AO2 SLP173 T00171039 FZRANO
PAOU 242056Z AUTO 04016KT 10SM FEW032 SCT046 02/M04 A3003 RMK AO2 SLP168 60000 T00171044 53013 FZRANO
PAOU 241956Z AUTO 03015KT 10SM FEW029 OVC046 01/M04 A3001 RMK AO2 SLP163 T00111044 FZRANO
PAOU 241916Z AUTO 04015KT 10SM FEW023 SCT029 BKN046 01/M03 A3000 RMK AO2 FZRANO
PAOU 241856Z AUTO 04012KT 10SM FEW014 SCT021 BKN028 02/M02 A2999 RMK AO2 UPB00E02B36E40RAB02E41SNE00 SLP156 P0000 T00221017 FZRANO
PAOU 241853Z AUTO 04014KT 9SM FEW014 SCT021 BKN028 02/M02 A2999 RMK AO2 UPB00E02B36E40RAB02E41SNE00 P0000 FZRANO
PAOU 241829Z AUTO 04013KT 7SM -RA FEW009 SCT016 BKN042 01/M02 A2998 RMK AO2 UPB00E02RAB02SNE00 P0000 FZRANO
PAOU 241756Z AUTO 02017KT 9SM -SN FEW012 SCT019 BKN038 01/M02 A2997 RMK AO2 SLP149 P0000 60001 T00061017 10006 21006 51017 FZRANO
PAOU 241741Z AUTO 05013KT 2 1/2SM -SN BR SCT011 SCT021 BKN030 00/M02 A2998 RMK AO2 P0000 FZRANO
PAOU 241735Z AUTO 04009KT 3SM -SN BR FEW007 BKN030 OVC042 M01/M02 A2998 RMK AO2 P0000 FZRANO
PAOU 241725Z AUTO 05013KT 2SM -SN BR FEW007 SCT014 BKN022 M01/M02 A2998 RMK AO2 VIS 1V5 P0000 FZRANO
PAOU 241715Z AUTO 05016KT 1SM -SN BR FEW007 BKN014 OVC023 M01/M02 A2997 RMK AO2 P0000 FZRANO
PAOU 241712Z AUTO 05017KT 1 3/4SM -SN BR FEW007 BKN023 OVC050 00/M02 A2997 RMK AO2 P0000 FZRANO
PAOU 241707Z AUTO 04018KT 4SM -SN BR FEW009 BKN023 OVC046 00/M02 A2996 RMK AO2 P0000 FZRANO
PAOU 241656Z AUTO 04012G17KT 1 1/2SM -SN BR FEW005 SCT014 BKN021 00/M02 A2996 RMK AO2 RAE03B22E26UPB03E08SNB26 SLP146 P0000 T00001022 FZRANO
PAOU 241643Z AUTO 01009KT 3SM -SN BR FEW006 BKN025 OVC047 00/M02 A2996 RMK AO2 RAE03B22E26UPB03E08SNB26 P0000 FZRANO
PAOU 241640Z AUTO 01010KT 1 3/4SM -SN BR FEW006 BKN025 OVC055 00/M02 A2995 RMK AO2 VIS 3/4V5 RAE03B22E26UPB03E08SNB26 P0000 FZRANO
PAOU 241638Z AUTO 01009KT 1SM -SN BR FEW006 BKN014 BKN025 00/M02 A2995 RMK AO2 RAE03B22E26UPB03E08SNB26 P0000 FZRANO
PAOU 241631Z AUTO 01011KT 1/2SM SN FEW006 SCT013 BKN024 00/M03 A2996 RMK AO2 RAE03B22E26UPB03E08SNB26 P0000 FZRANO
PAOU 241628Z AUTO 03018G23KT 1SM -SN FEW006 BKN024 BKN029 01/M03 A2995 RMK AO2 RAE03B22E26UPB03E08SNB26 P0000 FZRANO
PAOU 241625Z AUTO 02017G23KT 2 1/2SM RA FEW016 BKN024 BKN029 01/M03 A2995 RMK AO2 RAE03B22UPB03E08 P0000 FZRANO
PAOU 241607Z AUTO 03011KT 10SM UP SCT024 01/M03 A2994 RMK AO2 RAE03UPB03 P0000 FZRANO
PAOU 241556Z AUTO 05009KT 10SM -RA SCT022 BKN029 BKN041 01/M03 A2994 RMK AO2 UPB23E29RAB54SNB29E47 SLP138 P0000 T00061028 FZRANO
PAOU 241532Z AUTO 02011G18KT 5SM -SN SCT024 BKN029 BKN034 01/M03 A2993 RMK AO2 UPB23E29SNB29 P0000 FZRANO
PAOU 241456Z AUTO 03011KT 10SM FEW022 SCT036 SCT049 00/M03 A2992 RMK AO2 UPB25E40 SLP132 P0000 60001 T00001033 53005 FZRANO
PAOU 241356Z AUTO 03010KT 10SM FEW023 SCT041 00/M02 A2991 RMK AO2 UPB03E11SNE03 SLP129 P0000 T00001022 FZRANO
PAOU 241352Z AUTO 03011KT 10SM SCT025 SCT043 BKN075 00/M02 A2991 RMK AO2 UPB03E11SNE03 P0000 FZRANO
PAOU 241326Z AUTO 03011KT 10SM FEW010 BKN023 OVC034 00/M02 A2991 RMK AO2 UPB03E11SNE03 P0000 FZRANO
PAOU 241303Z AUTO 01010G15KT 6SM UP BR FEW008 BKN012 OVC021 M01/M02 A2990 RMK AO2 UPB03SNE03 P0000 FZRANO
PAOU 241256Z AUTO 03005KT 2 1/2SM -SN BR SCT008 BKN012 OVC026 00/M02 A2991 RMK AO2 VIS 1V5 UPE20SNB20 SLP127 P0001 T00001017 FZRANO
PAOU 241254Z AUTO 02004KT 2SM -SN BR SCT008 BKN012 OVC019 M01/M02 A2991 RMK AO2 VIS 1V5 UPE20SNB20 P0001 FZRANO
PAOU 241250Z AUTO 01006KT 1 3/4SM -SN BR BKN010 OVC017 M01/M02 A2991 RMK AO2 VIS 1V5 UPE20SNB20 CIG 007V013 P0001 FZRANO
PAOU 241245Z AUTO 02005KT 3SM -SN BR FEW006 BKN013 OVC019 M01/M02 A2991 RMK AO2 UPE20SNB20 P0001 FZRANO
PAOU 241236Z AUTO 02005KT 8SM -SN FEW006 BKN020 OVC031 M01/M02 A2991 RMK AO2 UPE20SNB20 CIG 017V026 P0001 FZRANO
PAOU 241224Z AUTO 04006KT 2SM -SN BR SCT008 BKN015 OVC021 M01/M02 A2991 RMK AO2 UPE20SNB20 P0001 FZRANO
PAOU 241156Z AUTO 33008KT 10SM UP SCT008 BKN014 OVC022 M01/M02 A2990 RMK AO2 UPB34SNE34 SLP126 P0000 60000 70012 T10061017 10011 21011 51006 FZRANO
PAOU 241154Z AUTO 33008KT 10SM UP BKN008 BKN014 OVC050 M01/M02 A2990 RMK AO2 UPB34SNE34 CIG 006V011 P0000 FZRANO
PAOU 241143Z AUTO 33009KT 10SM UP SCT008 BKN015 OVC046 M01/M02 A2990 RMK AO2 UPB34SNE34 P0000 FZRANO
PAOU 241115Z AUTO 34009KT 3SM -SN BR FEW008 BKN012 OVC035 M01/M02 A2990 RMK AO2 P0000 FZRANO
PAOU 241111Z AUTO 34008KT 2SM -SN BR BKN010 BKN026 OVC035 M01/M02 A2990 RMK AO2 VIS 1 1/4V3 CIG 005V013 P0000 FZRANO
PAOU 241106Z AUTO 35009KT 1 1/2SM -SN BR BKN008 BKN035 OVC050 M01/M02 A2990 RMK AO2 CIG 005V013 P0000 FZRANO
PAOU 241058Z AUTO 35010KT 2 1/2SM -SN BR FEW008 BKN035 OVC050 M01/M02 A2990 RMK AO2 P0000 FZRANO
PAOU 241056Z AUTO 35010KT 3SM -SN BR BKN035 OVC047 M01/M02 A2990 RMK AO2 WSHFT 1039 UPB52E56SNE47B56 SLP126 P0000 T10061017 FZRANO
PAOU 241044Z AUTO 35011KT 8SM -SN FEW015 BKN043 OVC050 M01/M02 A2990 RMK AO2 P0000 FZRANO
PAOU 241032Z AUTO 30010KT 2 1/2SM -SN BR FEW007 SCT016 OVC050 M01/M02 A2989 RMK AO2 VIS 1 1/2V5 P0000 FZRANO
PAOU 241024Z AUTO 33009KT 3SM -SN BR SCT007 BKN016 OVC050 M01/M02 A2989 RMK AO2 P0000 FZRANO
PAOU 241013Z AUTO 34013KT 2SM -SN BR SCT007 BKN013 OVC022 M01/M02 A2989 RMK AO2 VIS 3/4V4 P0000 FZRANO
PAOU 241005Z AUTO 35012KT 1SM -SN BR SCT007 BKN013 OVC031 M01/M02 A2989 RMK AO2 P0000 FZRANO
PAOU 240956Z AUTO 34012KT 1 1/4SM -SN BR FEW007 BKN013 OVC031 M01/M02 A2989 RMK AO2 WSHFT 0900 RAB00E06SNB06 SLP120 P0000 T10061022 FZRANO
PAOU 240948Z AUTO 31011KT 1 3/4SM -SN BR FEW010 BKN023 OVC030 M01/M02 A2988 RMK AO2 WSHFT 0900 RAB00E06SNB06 P0000 FZRANO
PAOU 240939Z AUTO 30013KT 2 1/2SM -SN BR FEW010 SCT018 OVC030 M01/M03 A2988 RMK AO2 WSHFT 0900 RAB00E06SNB06 P0000 FZRANO
PAOU 240929Z AUTO 30013KT 1 3/4SM -SN BR FEW010 BKN019 OVC030 M01/M03 A2988 RMK AO2 WSHFT 0900 RAB00E06SNB06 P0000 FZRANO
PAOU 240920Z AUTO 30013KT 3SM -SN BR FEW007 BKN019 OVC023 00/M02 A2988 RMK AO2 WSHFT 0900 RAB00E06SNB06 P0000 FZRANO
PAOU 240907Z AUTO 31015KT 7SM -SN FEW007 OVC023 01/M03 A2988 RMK AO2 RAB00E06SNB06 P0000 FZRANO
PAOU 240856Z AUTO 36008KT 10SM BKN023 OVC031 01/M03 A2987 RMK AO2 SLP116 60000 T00061033 400111033 51014 FZRANO
PAOU 240837Z AUTO 36007KT 10SM BKN023 BKN032 OVC048 01/M03 A2987 RMK AO2 FZRANO
PAOU 240756Z AUTO 01010KT 10SM BKN049 OVC060 01/M03 A2986 RMK AO2 SLP111 T00061028 FZRANO
PAOU 240719Z AUTO 02011KT 10SM FEW023 BKN041 01/M03 A2985 RMK AO2 FZRANO
PAOU 240656Z AUTO 35011KT 10SM BKN029 BKN037 01/M04 A2985 RMK AO2 UPE00 SLP108 P0000 T00061039 FZRANO
PAOU 240635Z AUTO 35008KT 10SM BKN027 01/M03 A2985 RMK AO2 UPE00 P0000 FZRANO
PAOU 240556Z AUTO 31008KT 10SM UP OVC036 00/M02 A2983 RMK AO2 RAE12B40E55UPB55 SLP102 P0000 60009 T00001022 10011 21006 53016 FZRANO
PAOU 240502Z AUTO 36011KT 6SM -RA SCT013 SCT023 OVC030 01/M02 A2981 RMK AO2 P0000 FZRANO
PAOU 240456Z AUTO 36012KT 4SM -RA BR BKN013 BKN018 OVC032 01/M02 A2981 RMK AO2 RAB15UPB24E27 SLP096 P0000 T00061017 FZRANO
PAOU 240407Z AUTO 36009KT 10SM BKN020 01/M02 A2980 RMK AO2 FZRANO
PAOU 240356Z AUTO 35010KT 10SM SCT020 BKN090 01/M03 A2980 RMK AO2 SLP090 T00061028 FZRANO
PAOU 240335Z AUTO 36009KT 10SM FEW018 SCT026 OVC090 01/M02 A2979 RMK AO2 FZRANO
PAOU 240322Z AUTO 36011KT 10SM FEW016 BKN024 OVC085 01/M02 A2979 RMK AO2 FZRANO
PAOU 240314Z AUTO 01008KT 10SM SCT022 BKN043 OVC080 01/M02 A2979 RMK AO2 FZRANO
PAOU 240256Z AUTO 36009KT 10SM SCT014 BKN025 OVC060 00/M02 A2979 RMK AO2 UPB07E08B48E56RAB08E23SNE07B23E48 SLP087 P0000 60009 T00001017 53005 FZRANO
PAOU 240249Z AUTO 36008KT 9SM UP FEW004 BKN018 OVC024 00/M01 A2979 RMK AO2 UPB07E08B48RAB08E23SNE07B23E48 P0000 FZRANO
PAOU 240242Z AUTO 32006KT 2SM -SN BR SCT011 BKN018 OVC043 00/M01 A2978 RMK AO2 VIS 3/4V5 UPB07E08RAB08E23SNE07B23 P0000 FZRANO
PAOU 240239Z AUTO 32007KT 1 1/4SM -SN BR FEW005 BKN011 OVC040 00/M02 A2978 RMK AO2 VIS 1/2V5 UPB07E08RAB08E23SNE07B23 P0000 FZRANO
PAOU 240232Z AUTO 32007KT 1SM -SN BR FEW005 BKN019 OVC041 00/M01 A2978 RMK AO2 UPB07E08RAB08E23SNE07B23 P0000 FZRANO
PAOU 240227Z AUTO 31007KT 2 1/2SM -SN BR FEW005 BKN015 OVC041 00/M01 A2978 RMK AO2 UPB07E08RAB08E23SNE07B23 P0000 FZRANO
PAOU 240216Z AUTO 32005KT 10SM -RA FEW004 BKN041 OVC055 01/M01 A2978 RMK AO2 UPB07E08RAB08SNE07 P0000 FZRANO
PAOU 240207Z AUTO 32005KT 5SM UP BR BKN007 BKN012 OVC045 01/M01 A2978 RMK AO2 UPB07SNE07 CIG 003V010 P0000 FZRANO
PAOU 240159Z AUTO 33004KT 2SM -SN BR SCT003 BKN009 OVC043 00/M01 A2977 RMK AO2 CIG 008V014 P0000 FZRANO
PAOU 240156Z AUTO 35003KT 1SM -SN BR SCT003 BKN009 OVC043 00/M01 A2977 RMK AO2 CIG 008V014 SLP082 P0005 T00001011 FZRANO
PAOU 240151Z AUTO 00000KT 3/4SM -SN BR BKN003 OVC009 00/M01 A2977 RMK AO2 P0005 FZRANO
PAOU 240127Z AUTO 01007KT 1/4SM +SN FZFG BKN003 OVC019 M01/M02 A2977 RMK AO2 P0002 FZRANO
PAOU 240111Z AUTO 02009KT 1/4SM SN FG BKN005 BKN019 OVC027 01/M01 A2977 RMK AO2 CIG 003V007 P0000 FZRANO
PAOU 240107Z AUTO 02008KT 3/4SM -SN BR BKN005 OVC019 01/M01 A2977 RMK AO2 CIG 003V007 P0000 FZRANO
PAOU 240056Z AUTO 36004KT 1/2SM SN FG OVC005 01/M01 A2977 RMK AO2 UPB17E19RAB21E27SNE17B27 CIG 003V007 SLP081 P0004 T00061011 FZRANO
PAOU 240041Z AUTO 33005KT 1/2SM SN FG BKN005 OVC009 01/M01 A2977 RMK AO2 UPB17E19RAB21E27SNE17B27 CIG 003V007 P0002 FZRANO
PAOU 240032Z AUTO 00000KT 3/4SM -SN BR BKN005 OVC011 01/M01 A2977 RMK AO2 UPB17E19RAB21E27SNE17B27 CIG 003V008 P0001 FZRANO
PAOU 240028Z AUTO 00000KT 1 1/2SM -SN BR BKN007 OVC011 01/M01 A2977 RMK AO2 VIS 1/2V4 UPB17E19RAB21E27SNE17B27 CIG 004V009 P0000 FZRANO
PAOU 240014Z AUTO 04004KT 3SM -SN BR BKN009 OVC018 01/M01 A2976 RMK AO2 CIG 004V012 P0000 FZRANO
PAOU 240009Z AUTO 06004KT 1 1/2SM -SN BR BKN007 OVC018 01/M01 A2976 RMK AO2 VIS 3/4V5 CIG 004V014 P0000 FZRANO
PAOU 232356Z AUTO 07005KT 2 1/2SM -SN BR BKN007 OVC010 01/M01 A2976 RMK AO2 VIS 1V5 CIG 004V008 SLP078 P0000 60003 T00061011 10006 21011 55004 FZRANO
PAOU 232345Z AUTO 06006KT 6SM -SN BR BKN007 OVC014 01/M01 A2976 RMK AO2 CIG 005V010 P0000 FZRANO
PAOU 232311Z AUTO 08005KT 3SM -SN BR BKN005 OVC039 00/M01 A2976 RMK AO2 CIG 003V008 P0000 FZRANO
PAOU 232256Z AUTO 10004KT 2 1/2SM -SN BR SCT007 OVC039 M01/M01 A2976 RMK AO2 VIS 1 1/2V5 SLP076 P0003 T10061011 FZRANO
PAOU 232253Z AUTO 10004KT 1 1/2SM -SN BR BKN007 BKN016 OVC039 M01/M01 A2976 RMK AO2 VIS 3/4V4 P0003 FZRANO
PAOU 232251Z AUTO 10004KT 3/4SM -SN BR BKN007 BKN017 OVC037 M01/M01 A2976 RMK AO2 P0003 FZRANO
PAOU 232243Z AUTO 11004KT 1/4SM +SN FZFG FEW003 OVC007 M01/M02 A2976 RMK AO2 P0003 FZRANO
PAOU 232213Z AUTO 10005KT 1/2SM -SN FZFG OVC009 M01/M02 A2976 RMK AO2 CIG 006V011 P0001 FZRANO
PAOU 232203Z AUTO 09006KT 1SM -SN BR FEW003 BKN008 OVC011 M01/M02 A2976 RMK AO2 CIG 005V010 P0000 FZRANO
PAOU 232156Z AUTO 11009KT 1/2SM SN FZFG OVC008 M01/M02 A2976 RMK AO2 CIG 003V011 SLP079 P0000 T10111017 FZRANO
PAOU 232137Z AUTO 11012KT 1/2SM SN FZFG BKN006 OVC010 M01/M02 A2977 RMK AO2 CIG 003V009 P0000 FZRANO
PAOU 232121Z AUTO 13012KT 3/4SM -SN BR FEW005 BKN012 OVC019 M01/M02 A2977 RMK AO2 P0000 FZRANO
PAOU 232115Z AUTO 13012KT 1SM -SN BR BKN009 BKN014 OVC019 M01/M02 A2977 RMK AO2 CIG 004V011 P0000 FZRANO
PAOU 232106Z AUTO 12012KT 1 3/4SM -SN BR BKN014 BKN019 OVC028 M01/M02 A2977 RMK AO2 VIS 3/4V5 P0000 FZRANO
PAOU 232056Z AUTO 12013KT 8SM -SN SCT019 BKN028 OVC037 M01/M02 A2977 RMK AO2 UPE54SNB54 SLP082 P0000 60000 T10061017 56014 FZRANO
PAOU 232006Z AUTO 16018KT 10SM UP FEW007 BKN049 OVC060 M01/M02 A2977 RMK AO2 P0000 FZRANO
PAOU 231956Z AUTO 17014KT 10SM UP FEW040 OVC060 00/M02 A2977 RMK AO2 UPE1857B29SNB1857E29 SLP082 P0000 T00001022 FZRANO
PAOU 231949Z AUTO 17015KT 10SM UP FEW008 OVC060 00/M02 A2978 RMK AO2 UPE1857B29SNB1857E29 P0000 FZRANO
PAOU 231935Z AUTO 17015KT 10SM FEW024 SCT029 OVC060 00/M02 A2978 RMK AO2 UPE1857B29E33SNB1857E29 P0000 FZRANO
PAOU 231927Z AUTO 17014KT 7SM -SN BKN027 BKN039 OVC060 00/M02 A2978 RMK AO2 UPE1857SNB1857 P0000 FZRANO
PAOU 231914Z AUTO 15014KT 2SM -SN BR BKN027 OVC033 00/M02 A2979 RMK AO2 UPE1857SNB1857 P0000 FZRANO
PAOU 231907Z AUTO 15014KT 2SM -SN OVC031 00/M03 A2979 RMK AO2 UPE1857SNB1857 P0000 FZRANO
PAOU 231856Z AUTO 15015KT 5SM UP FEW027 OVC033 00/M03 A2979 RMK AO2 UPB39RAB44E52 SLP088 P0000 T00001033 FZRANO
PAOU 231756Z AUTO 15014KT 10SM BKN033 OVC060 00/M03 A2981 RMK AO2 SLP095 60000 T00001033 10000 21033 58010 FZRANO
PAOU 231656Z AUTO 15013KT 10SM OVC070 M01/M04 A2982 RMK AO2 SLP099 T10111039 FZRANO
PAOU 231556Z AUTO 18010KT 10SM FEW075 SCT100 M02/M04 A2984 RMK AO2 SLP104 T10221039 FZRANO
PAOU 231456Z AUTO 20011KT 10SM FEW060 M03/M04 A2984 RMK AO2 SLP106 60000 T10281044 58009 FZRANO
PAOU 231356Z AUTO 22011KT 10SM FEW042 BKN110 M03/M04 A2986 RMK AO2 SLP113 T10331044 FZRANO
PAOU 231256Z AUTO 22009KT 10SM FEW039 BKN049 M02/M03 A2987 RMK AO2 SNE13 SLP114 P0000 T10221033 FZRANO